sensor_id;sensor_type;location;lat;lon;timestamp;pressure;altitude;pressure_sealevel;temperature;humidity
76819;BME280;65772;51.096;17.006;2024-02-04T00:02:07;100269.48;;;11.08;70.08
76819;BME280;65772;51.096;17.006;2024-02-04T00:04:42;100254.19;;;10.98;70.31
76819;BME280;65772;51.096;17.006;2024-02-04T00:07:13;100248.33;;;10.89;70.26
76819;BME280;65772;51.096;17.006;2024-02-04T00:09:43;100250.17;;;10.82;70.59
76819;BME280;65772;51.096;17.006;2024-02-04T00:12:14;100255.48;;;10.76;70.40
76819;BME280;65772;51.096;17.006;2024-02-04T00:14:45;100259.29;;;10.72;70.51
76819;BME280;65772;51.096;17.006;2024-02-04T00:17:15;100263.35;;;10.71;70.69
76819;BME280;65772;51.096;17.006;2024-02-04T00:19:46;100256.80;;;10.68;70.53
76819;BME280;65772;51.096;17.006;2024-02-04T00:22:16;100257.19;;;10.64;70.40
76819;BME280;65772;51.096;17.006;2024-02-04T00:24:49;100259.63;;;10.59;70.27
76819;BME280;65772;51.096;17.006;2024-02-04T00:27:20;100254.15;;;10.53;70.20
76819;BME280;65772;51.096;17.006;2024-02-04T00:29:51;100259.04;;;10.45;69.48
76819;BME280;65772;51.096;17.006;2024-02-04T00:32:22;100263.13;;;10.39;69.76
76819;BME280;65772;51.096;17.006;2024-02-04T00:34:52;100263.33;;;10.40;69.91
76819;BME280;65772;51.096;17.006;2024-02-04T00:37:23;100260.20;;;10.43;69.88
76819;BME280;65772;51.096;17.006;2024-02-04T00:39:54;100262.38;;;10.47;69.65
76819;BME280;65772;51.096;17.006;2024-02-04T00:42:24;100256.81;;;10.44;69.14
76819;BME280;65772;51.096;17.006;2024-02-04T00:44:55;100255.54;;;10.42;69.12
76819;BME280;65772;51.096;17.006;2024-02-04T00:47:25;100251.15;;;10.37;69.17
76819;BME280;65772;51.096;17.006;2024-02-04T00:49:56;100253.93;;;10.33;68.51
76819;BME280;65772;51.096;17.006;2024-02-04T00:52:27;100252.80;;;10.29;68.91
76819;BME280;65772;51.096;17.006;2024-02-04T00:54:57;100256.35;;;10.28;69.04
76819;BME280;65772;51.096;17.006;2024-02-04T00:57:28;100256.17;;;10.28;68.92
76819;BME280;65772;51.096;17.006;2024-02-04T00:59:59;100248.50;;;10.28;69.02
76819;BME280;65772;51.096;17.006;2024-02-04T01:02:29;100253.60;;;10.27;68.64
76819;BME280;65772;51.096;17.006;2024-02-04T01:05:00;100257.17;;;10.26;68.51
76819;BME280;65772;51.096;17.006;2024-02-04T01:07:31;100265.48;;;10.31;68.72
76819;BME280;65772;51.096;17.006;2024-02-04T01:10:02;100269.88;;;10.35;69.10
76819;BME280;65772;51.096;17.006;2024-02-04T01:12:38;100267.16;;;10.36;68.73
76819;BME280;65772;51.096;17.006;2024-02-04T01:15:09;100264.05;;;10.35;68.77
76819;BME280;65772;51.096;17.006;2024-02-04T01:17:40;100261.23;;;10.32;68.45
76819;BME280;65772;51.096;17.006;2024-02-04T01:20:11;100258.45;;;10.31;68.65
76819;BME280;65772;51.096;17.006;2024-02-04T01:22:42;100256.43;;;10.31;68.48
76819;BME280;65772;51.096;17.006;2024-02-04T01:25:13;100260.84;;;10.30;68.30
76819;BME280;65772;51.096;17.006;2024-02-04T01:27:43;100263.02;;;10.29;68.36
76819;BME280;65772;51.096;17.006;2024-02-04T01:30:14;100259.20;;;10.33;68.57
76819;BME280;65772;51.096;17.006;2024-02-04T01:32:45;100254.62;;;10.33;68.62
76819;BME280;65772;51.096;17.006;2024-02-04T01:35:16;100255.08;;;10.32;68.52
76819;BME280;65772;51.096;17.006;2024-02-04T01:37:46;100248.71;;;10.30;68.46
76819;BME280;65772;51.096;17.006;2024-02-04T01:40:18;100251.06;;;10.28;68.43
76819;BME280;65772;51.096;17.006;2024-02-04T01:42:49;100251.73;;;10.27;68.66
76819;BME280;65772;51.096;17.006;2024-02-04T01:45:19;100250.59;;;10.30;69.13
76819;BME280;65772;51.096;17.006;2024-02-04T01:47:50;100249.94;;;10.31;68.83
76819;BME280;65772;51.096;17.006;2024-02-04T01:50:22;100251.22;;;10.34;69.10
76819;BME280;65772;51.096;17.006;2024-02-04T01:52:54;100244.38;;;10.33;68.91
76819;BME280;65772;51.096;17.006;2024-02-04T01:55:25;100232.64;;;10.34;69.08
76819;BME280;65772;51.096;17.006;2024-02-04T01:57:56;100232.54;;;10.36;69.14
76819;BME280;65772;51.096;17.006;2024-02-04T02:00:26;100222.92;;;10.41;69.06
76819;BME280;65772;51.096;17.006;2024-02-04T02:02:58;100226.16;;;10.47;69.08
76819;BME280;65772;51.096;17.006;2024-02-04T02:05:29;100223.32;;;10.49;69.15
76819;BME280;65772;51.096;17.006;2024-02-04T02:08:00;100217.20;;;10.50;69.33
76819;BME280;65772;51.096;17.006;2024-02-04T02:10:31;100217.43;;;10.52;69.35
76819;BME280;65772;51.096;17.006;2024-02-04T02:13:07;100218.20;;;10.55;69.53
76819;BME280;65772;51.096;17.006;2024-02-04T02:15:43;100227.02;;;10.58;69.11
76819;BME280;65772;51.096;17.006;2024-02-04T02:18:18;100229.77;;;10.60;69.42
76819;BME280;65772;51.096;17.006;2024-02-04T02:21:07;100230.60;;;10.65;69.36
76819;BME280;65772;51.096;17.006;2024-02-04T02:23:48;100233.44;;;10.69;69.23
76819;BME280;65772;51.096;17.006;2024-02-04T02:26:20;100230.95;;;10.72;69.22
76819;BME280;65772;51.096;17.006;2024-02-04T02:28:50;100227.85;;;10.71;69.23
76819;BME280;65772;51.096;17.006;2024-02-04T02:31:21;100228.76;;;10.73;69.06
76819;BME280;65772;51.096;17.006;2024-02-04T02:34:09;100224.67;;;10.74;69.16
76819;BME280;65772;51.096;17.006;2024-02-04T02:36:59;100218.73;;;10.74;69.29
76819;BME280;65772;51.096;17.006;2024-02-04T02:39:36;100219.25;;;10.75;69.24
76819;BME280;65772;51.096;17.006;2024-02-04T02:42:12;100215.65;;;10.75;69.06
76819;BME280;65772;51.096;17.006;2024-02-04T02:44:45;100220.09;;;10.74;68.90
76819;BME280;65772;51.096;17.006;2024-02-04T02:47:16;100226.98;;;10.76;68.72
76819;BME280;65772;51.096;17.006;2024-02-04T02:49:48;100230.02;;;10.75;68.51
76819;BME280;65772;51.096;17.006;2024-02-04T02:52:21;100224.20;;;10.68;68.13
76819;BME280;65772;51.096;17.006;2024-02-04T02:54:52;100223.59;;;10.65;67.87
76819;BME280;65772;51.096;17.006;2024-02-04T02:57:22;100220.46;;;10.56;67.18
76819;BME280;65772;51.096;17.006;2024-02-04T02:59:53;100217.56;;;10.50;67.19
76819;BME280;65772;51.096;17.006;2024-02-04T03:02:23;100219.54;;;10.48;66.94
76819;BME280;65772;51.096;17.006;2024-02-04T03:04:54;100224.94;;;10.45;67.04
76819;BME280;65772;51.096;17.006;2024-02-04T03:07:24;100219.81;;;10.45;66.65
76819;BME280;65772;51.096;17.006;2024-02-04T03:09:55;100211.83;;;10.46;66.72
76819;BME280;65772;51.096;17.006;2024-02-04T03:12:25;100202.63;;;10.47;66.33
76819;BME280;65772;51.096;17.006;2024-02-04T03:14:56;100202.39;;;10.45;66.19
76819;BME280;65772;51.096;17.006;2024-02-04T03:17:27;100194.64;;;10.42;66.05
76819;BME280;65772;51.096;17.006;2024-02-04T03:19:57;100201.64;;;10.43;65.88
76819;BME280;65772;51.096;17.006;2024-02-04T03:22:28;100202.52;;;10.43;65.82
76819;BME280;65772;51.096;17.006;2024-02-04T03:24:59;100204.71;;;10.43;65.82
76819;BME280;65772;51.096;17.006;2024-02-04T03:27:30;100207.17;;;10.39;65.79
76819;BME280;65772;51.096;17.006;2024-02-04T03:30:00;100209.00;;;10.31;65.74
76819;BME280;65772;51.096;17.006;2024-02-04T03:32:31;100206.50;;;10.27;65.80
76819;BME280;65772;51.096;17.006;2024-02-04T03:35:04;100215.68;;;10.25;65.52
76819;BME280;65772;51.096;17.006;2024-02-04T03:37:35;100211.07;;;10.20;65.40
76819;BME280;65772;51.096;17.006;2024-02-04T03:40:07;100215.84;;;10.14;65.42
76819;BME280;65772;51.096;17.006;2024-02-04T03:42:38;100219.52;;;10.12;65.36
76819;BME280;65772;51.096;17.006;2024-02-04T03:45:10;100225.29;;;10.11;65.01
76819;BME280;65772;51.096;17.006;2024-02-04T03:47:41;100223.84;;;10.09;65.24
76819;BME280;65772;51.096;17.006;2024-02-04T03:50:13;100227.46;;;10.04;64.86
76819;BME280;65772;51.096;17.006;2024-02-04T03:52:43;100235.33;;;9.99;65.20
76819;BME280;65772;51.096;17.006;2024-02-04T03:55:14;100238.73;;;9.99;64.99
76819;BME280;65772;51.096;17.006;2024-02-04T03:57:45;100238.66;;;10.02;65.02
76819;BME280;65772;51.096;17.006;2024-02-04T04:00:17;100251.91;;;10.05;64.86
76819;BME280;65772;51.096;17.006;2024-02-04T04:02:47;100252.96;;;10.07;64.50
76819;BME280;65772;51.096;17.006;2024-02-04T04:05:18;100254.80;;;10.05;63.93
76819;BME280;65772;51.096;17.006;2024-02-04T04:07:48;100253.16;;;10.02;63.41
76819;BME280;65772;51.096;17.006;2024-02-04T04:10:19;100255.48;;;10.00;63.34
76819;BME280;65772;51.096;17.006;2024-02-04T04:12:50;100255.41;;;9.98;62.53
76819;BME280;65772;51.096;17.006;2024-02-04T04:15:20;100255.57;;;9.91;62.26
76819;BME280;65772;51.096;17.006;2024-02-04T04:17:51;100258.24;;;9.84;62.64
76819;BME280;65772;51.096;17.006;2024-02-04T04:20:21;100258.80;;;9.80;62.26
76819;BME280;65772;51.096;17.006;2024-02-04T04:22:52;100256.61;;;9.76;61.67
76819;BME280;65772;51.096;17.006;2024-02-04T04:25:22;100256.96;;;9.70;61.62
76819;BME280;65772;51.096;17.006;2024-02-04T04:27:53;100259.31;;;9.69;61.75
76819;BME280;65772;51.096;17.006;2024-02-04T04:30:25;100262.00;;;9.68;61.34
76819;BME280;65772;51.096;17.006;2024-02-04T04:32:57;100269.23;;;9.66;61.49
76819;BME280;65772;51.096;17.006;2024-02-04T04:35:27;100267.10;;;9.62;61.42
76819;BME280;65772;51.096;17.006;2024-02-04T04:37:57;100265.80;;;9.59;61.57
76819;BME280;65772;51.096;17.006;2024-02-04T04:40:28;100260.02;;;9.59;61.96
76819;BME280;65772;51.096;17.006;2024-02-04T04:42:58;100267.45;;;9.62;61.62
76819;BME280;65772;51.096;17.006;2024-02-04T04:45:29;100268.11;;;9.67;62.07
76819;BME280;65772;51.096;17.006;2024-02-04T04:48:00;100264.40;;;9.69;62.11
76819;BME280;65772;51.096;17.006;2024-02-04T04:50:30;100260.77;;;9.72;62.44
76819;BME280;65772;51.096;17.006;2024-02-04T04:53:01;100262.59;;;9.75;62.52
76819;BME280;65772;51.096;17.006;2024-02-04T04:55:31;100265.58;;;9.79;62.56
76819;BME280;65772;51.096;17.006;2024-02-04T04:58:02;100269.80;;;9.83;62.49
76819;BME280;65772;51.096;17.006;2024-02-04T05:00:33;100271.23;;;9.85;62.47
76819;BME280;65772;51.096;17.006;2024-02-04T05:03:05;100270.48;;;9.82;62.34
76819;BME280;65772;51.096;17.006;2024-02-04T05:05:36;100261.91;;;9.81;62.59
76819;BME280;65772;51.096;17.006;2024-02-04T05:08:06;100252.10;;;9.78;62.35
76819;BME280;65772;51.096;17.006;2024-02-04T05:10:37;100251.13;;;9.74;62.61
76819;BME280;65772;51.096;17.006;2024-02-04T05:13:08;100253.40;;;9.71;62.78
76819;BME280;65772;51.096;17.006;2024-02-04T05:15:38;100246.96;;;9.67;62.57
76819;BME280;65772;51.096;17.006;2024-02-04T05:18:09;100239.27;;;9.61;62.44
76819;BME280;65772;51.096;17.006;2024-02-04T05:20:40;100248.33;;;9.56;62.43
76819;BME280;65772;51.096;17.006;2024-02-04T05:23:10;100258.56;;;9.56;62.43
76819;BME280;65772;51.096;17.006;2024-02-04T05:25:41;100256.77;;;9.59;62.71
76819;BME280;65772;51.096;17.006;2024-02-04T05:28:12;100256.58;;;9.63;62.68
76819;BME280;65772;51.096;17.006;2024-02-04T05:30:42;100264.13;;;9.66;62.18
76819;BME280;65772;51.096;17.006;2024-02-04T05:33:16;100266.39;;;9.67;61.93
76819;BME280;65772;51.096;17.006;2024-02-04T05:35:46;100275.20;;;9.65;62.08
76819;BME280;65772;51.096;17.006;2024-02-04T05:38:17;100278.30;;;9.66;62.02
76819;BME280;65772;51.096;17.006;2024-02-04T05:40:47;100285.52;;;9.68;62.20
76819;BME280;65772;51.096;17.006;2024-02-04T05:43:18;100289.48;;;9.69;61.80
76819;BME280;65772;51.096;17.006;2024-02-04T05:45:49;100293.45;;;9.70;61.72
76819;BME280;65772;51.096;17.006;2024-02-04T05:48:19;100287.00;;;9.71;61.64
76819;BME280;65772;51.096;17.006;2024-02-04T05:50:50;100284.25;;;9.71;61.90
76819;BME280;65772;51.096;17.006;2024-02-04T05:53:21;100283.30;;;9.68;61.47
76819;BME280;65772;51.096;17.006;2024-02-04T05:55:52;100279.54;;;9.67;61.53
76819;BME280;65772;51.096;17.006;2024-02-04T05:58:22;100280.91;;;9.68;61.35
76819;BME280;65772;51.096;17.006;2024-02-04T06:00:53;100279.66;;;9.66;61.23
76819;BME280;65772;51.096;17.006;2024-02-04T06:03:23;100282.30;;;9.63;61.22
76819;BME280;65772;51.096;17.006;2024-02-04T06:05:57;100292.77;;;9.60;61.07
76819;BME280;65772;51.096;17.006;2024-02-04T06:08:28;100289.68;;;9.59;61.68
76819;BME280;65772;51.096;17.006;2024-02-04T06:10:58;100286.42;;;9.59;61.59
76819;BME280;65772;51.096;17.006;2024-02-04T06:13:29;100290.28;;;9.57;61.62
76819;BME280;65772;51.096;17.006;2024-02-04T06:15:59;100288.77;;;9.58;61.26
76819;BME280;65772;51.096;17.006;2024-02-04T06:18:30;100287.39;;;9.58;61.47
76819;BME280;65772;51.096;17.006;2024-02-04T06:21:01;100283.89;;;9.60;61.45
76819;BME280;65772;51.096;17.006;2024-02-04T06:23:31;100290.25;;;9.61;61.28
76819;BME280;65772;51.096;17.006;2024-02-04T06:26:05;100288.41;;;9.62;61.77
76819;BME280;65772;51.096;17.006;2024-02-04T06:28:36;100289.83;;;9.64;61.69
76819;BME280;65772;51.096;17.006;2024-02-04T06:31:09;100295.02;;;9.67;61.62
76819;BME280;65772;51.096;17.006;2024-02-04T06:33:40;100294.92;;;9.69;61.21
76819;BME280;65772;51.096;17.006;2024-02-04T06:36:11;100295.07;;;9.68;61.46
76819;BME280;65772;51.096;17.006;2024-02-04T06:38:41;100296.29;;;9.69;61.37
76819;BME280;65772;51.096;17.006;2024-02-04T06:41:12;100290.48;;;9.68;61.21
76819;BME280;65772;51.096;17.006;2024-02-04T06:43:42;100291.00;;;9.69;61.40
76819;BME280;65772;51.096;17.006;2024-02-04T06:46:13;100292.86;;;9.68;61.64
76819;BME280;65772;51.096;17.006;2024-02-04T06:48:44;100290.13;;;9.68;61.45
76819;BME280;65772;51.096;17.006;2024-02-04T06:51:14;100294.17;;;9.67;61.17
76819;BME280;65772;51.096;17.006;2024-02-04T06:53:45;100287.94;;;9.69;61.08
76819;BME280;65772;51.096;17.006;2024-02-04T06:56:15;100281.67;;;9.70;60.76
76819;BME280;65772;51.096;17.006;2024-02-04T06:58:46;100281.50;;;9.70;60.72
76819;BME280;65772;51.096;17.006;2024-02-04T07:01:16;100282.28;;;9.68;60.81
76819;BME280;65772;51.096;17.006;2024-02-04T07:03:47;100280.52;;;9.66;60.78
76819;BME280;65772;51.096;17.006;2024-02-04T07:06:19;100272.22;;;9.62;60.55
76819;BME280;65772;51.096;17.006;2024-02-04T07:08:50;100271.63;;;9.60;60.75
76819;BME280;65772;51.096;17.006;2024-02-04T07:11:20;100270.60;;;9.60;60.63
76819;BME280;65772;51.096;17.006;2024-02-04T07:13:51;100277.10;;;9.60;60.57
76819;BME280;65772;51.096;17.006;2024-02-04T07:16:27;100272.52;;;9.61;60.79
76819;BME280;65772;51.096;17.006;2024-02-04T07:18:58;100267.23;;;9.61;60.57
76819;BME280;65772;51.096;17.006;2024-02-04T07:21:29;100260.96;;;9.62;60.59
76819;BME280;65772;51.096;17.006;2024-02-04T07:23:59;100261.34;;;9.63;60.57
76819;BME280;65772;51.096;17.006;2024-02-04T07:26:30;100260.17;;;9.64;60.45
76819;BME280;65772;51.096;17.006;2024-02-04T07:29:00;100258.57;;;9.67;60.79
76819;BME280;65772;51.096;17.006;2024-02-04T07:31:31;100254.17;;;9.69;60.61
76819;BME280;65772;51.096;17.006;2024-02-04T07:34:01;100252.64;;;9.68;60.56
76819;BME280;65772;51.096;17.006;2024-02-04T07:36:32;100258.29;;;9.69;60.58
76819;BME280;65772;51.096;17.006;2024-02-04T07:39:02;100256.96;;;9.70;60.47
76819;BME280;65772;51.096;17.006;2024-02-04T07:41:34;100257.05;;;9.68;60.42
76819;BME280;65772;51.096;17.006;2024-02-04T07:44:05;100254.41;;;9.65;60.23
76819;BME280;65772;51.096;17.006;2024-02-04T07:46:35;100259.06;;;9.61;60.26
76819;BME280;65772;51.096;17.006;2024-02-04T07:49:06;100265.65;;;9.60;60.47
76819;BME280;65772;51.096;17.006;2024-02-04T07:51:36;100265.77;;;9.58;60.59
76819;BME280;65772;51.096;17.006;2024-02-04T07:54:07;100256.38;;;9.57;60.60
76819;BME280;65772;51.096;17.006;2024-02-04T07:56:38;100247.69;;;9.58;60.75
76819;BME280;65772;51.096;17.006;2024-02-04T07:59:08;100243.10;;;9.58;60.93
76819;BME280;65772;51.096;17.006;2024-02-04T08:01:39;100236.31;;;9.59;60.76
76819;BME280;65772;51.096;17.006;2024-02-04T08:04:10;100245.95;;;9.61;60.74
76819;BME280;65772;51.096;17.006;2024-02-04T08:06:41;100259.80;;;9.63;60.62
76819;BME280;65772;51.096;17.006;2024-02-04T08:09:12;100254.02;;;9.64;60.80
76819;BME280;65772;51.096;17.006;2024-02-04T08:11:42;100251.18;;;9.65;60.63
76819;BME280;65772;51.096;17.006;2024-02-04T08:14:13;100250.43;;;9.63;60.31
76819;BME280;65772;51.096;17.006;2024-02-04T08:16:44;100249.00;;;9.61;60.04
76819;BME280;65772;51.096;17.006;2024-02-04T08:19:16;100245.18;;;9.59;60.06
76819;BME280;65772;51.096;17.006;2024-02-04T08:21:47;100248.63;;;9.54;60.05
76819;BME280;65772;51.096;17.006;2024-02-04T08:24:17;100231.77;;;9.55;60.16
76819;BME280;65772;51.096;17.006;2024-02-04T08:26:48;100223.32;;;9.58;59.34
76819;BME280;65772;51.096;17.006;2024-02-04T08:29:19;100232.41;;;9.53;59.32
76819;BME280;65772;51.096;17.006;2024-02-04T08:31:49;100239.27;;;9.49;59.16
76819;BME280;65772;51.096;17.006;2024-02-04T08:34:20;100240.33;;;9.50;58.98
76819;BME280;65772;51.096;17.006;2024-02-04T08:36:53;100242.84;;;9.49;58.53
76819;BME280;65772;51.096;17.006;2024-02-04T08:39:24;100242.16;;;9.49;58.70
76819;BME280;65772;51.096;17.006;2024-02-04T08:41:56;100240.14;;;9.50;58.95
76819;BME280;65772;51.096;17.006;2024-02-04T08:44:26;100238.27;;;9.50;58.95
76819;BME280;65772;51.096;17.006;2024-02-04T08:47:08;100241.64;;;9.54;59.43
76819;BME280;65772;51.096;17.006;2024-02-04T08:49:40;100234.93;;;9.58;58.90
76819;BME280;65772;51.096;17.006;2024-02-04T08:52:10;100224.77;;;9.60;58.08
76819;BME280;65772;51.096;17.006;2024-02-04T08:54:41;100229.95;;;9.62;58.50
76819;BME280;65772;51.096;17.006;2024-02-04T08:57:12;100232.40;;;9.65;58.50
76819;BME280;65772;51.096;17.006;2024-02-04T08:59:42;100235.56;;;9.67;58.20
76819;BME280;65772;51.096;17.006;2024-02-04T09:02:13;100231.55;;;9.70;58.39
76819;BME280;65772;51.096;17.006;2024-02-04T09:04:44;100231.21;;;9.70;57.94
76819;BME280;65772;51.096;17.006;2024-02-04T09:07:15;100222.70;;;9.70;58.36
76819;BME280;65772;51.096;17.006;2024-02-04T09:09:46;100221.58;;;9.72;58.31
76819;BME280;65772;51.096;17.006;2024-02-04T09:12:16;100220.96;;;9.75;58.42
76819;BME280;65772;51.096;17.006;2024-02-04T09:14:47;100214.25;;;9.78;58.22
76819;BME280;65772;51.096;17.006;2024-02-04T09:17:18;100213.86;;;9.82;58.38
76819;BME280;65772;51.096;17.006;2024-02-04T09:19:48;100216.83;;;9.84;58.31
76819;BME280;65772;51.096;17.006;2024-02-04T09:22:19;100217.92;;;9.87;58.45
76819;BME280;65772;51.096;17.006;2024-02-04T09:24:50;100207.22;;;9.88;58.08
76819;BME280;65772;51.096;17.006;2024-02-04T09:27:21;100200.96;;;9.90;58.05
76819;BME280;65772;51.096;17.006;2024-02-04T09:29:51;100201.67;;;9.91;58.19
76819;BME280;65772;51.096;17.006;2024-02-04T09:32:24;100191.77;;;9.90;58.21
76819;BME280;65772;51.096;17.006;2024-02-04T09:34:55;100194.56;;;9.92;58.33
76819;BME280;65772;51.096;17.006;2024-02-04T09:37:25;100196.16;;;9.95;58.33
76819;BME280;65772;51.096;17.006;2024-02-04T09:39:56;100195.23;;;9.98;58.22
76819;BME280;65772;51.096;17.006;2024-02-04T09:42:27;100197.48;;;10.00;58.07
76819;BME280;65772;51.096;17.006;2024-02-04T09:44:59;100205.21;;;10.01;57.91
76819;BME280;65772;51.096;17.006;2024-02-04T09:47:30;100194.21;;;10.03;58.14
76819;BME280;65772;51.096;17.006;2024-02-04T09:50:02;100196.69;;;10.06;57.92
76819;BME280;65772;51.096;17.006;2024-02-04T09:52:34;100197.39;;;10.08;58.00
76819;BME280;65772;51.096;17.006;2024-02-04T09:55:11;100191.13;;;10.09;58.13
76819;BME280;65772;51.096;17.006;2024-02-04T09:57:43;100180.07;;;10.10;58.13
76819;BME280;65772;51.096;17.006;2024-02-04T10:00:15;100166.16;;;10.13;58.23
76819;BME280;65772;51.096;17.006;2024-02-04T10:02:48;100153.92;;;10.14;57.93
76819;BME280;65772;51.096;17.006;2024-02-04T10:05:19;100154.48;;;10.16;58.25
76819;BME280;65772;51.096;17.006;2024-02-04T10:07:51;100153.83;;;10.16;58.31
76819;BME280;65772;51.096;17.006;2024-02-04T10:10:21;100157.23;;;10.17;58.57
76819;BME280;65772;51.096;17.006;2024-02-04T10:12:52;100154.16;;;10.16;58.60
76819;BME280;65772;51.096;17.006;2024-02-04T10:15:24;100149.73;;;10.16;58.80
76819;BME280;65772;51.096;17.006;2024-02-04T10:18:06;100143.97;;;10.18;58.88
76819;BME280;65772;51.096;17.006;2024-02-04T10:20:38;100137.23;;;10.20;59.01
76819;BME280;65772;51.096;17.006;2024-02-04T10:23:10;100142.95;;;10.23;58.62
76819;BME280;65772;51.096;17.006;2024-02-04T10:25:41;100146.84;;;10.22;58.63
76819;BME280;65772;51.096;17.006;2024-02-04T10:28:12;100148.23;;;10.23;59.28
76819;BME280;65772;51.096;17.006;2024-02-04T10:30:43;100146.02;;;10.23;59.16
76819;BME280;65772;51.096;17.006;2024-02-04T10:33:14;100140.98;;;10.26;59.46
76819;BME280;65772;51.096;17.006;2024-02-04T10:35:45;100133.34;;;10.27;59.71
76819;BME280;65772;51.096;17.006;2024-02-04T10:38:16;100120.69;;;10.27;60.01
76819;BME280;65772;51.096;17.006;2024-02-04T10:40:47;100121.05;;;10.28;60.28
76819;BME280;65772;51.096;17.006;2024-02-04T10:43:19;100116.69;;;10.31;60.48
76819;BME280;65772;51.096;17.006;2024-02-04T10:45:55;100111.38;;;10.36;60.67
76819;BME280;65772;51.096;17.006;2024-02-04T10:48:30;100104.20;;;10.42;60.81
76819;BME280;65772;51.096;17.006;2024-02-04T10:51:14;100098.23;;;10.49;61.15
76819;BME280;65772;51.096;17.006;2024-02-04T10:53:45;100097.86;;;10.54;61.46
76819;BME280;65772;51.096;17.006;2024-02-04T10:56:29;100091.49;;;10.59;61.62
76819;BME280;65772;51.096;17.006;2024-02-04T10:59:02;100092.08;;;10.62;61.69
76819;BME280;65772;51.096;17.006;2024-02-04T11:01:33;100093.08;;;10.68;61.59
76819;BME280;65772;51.096;17.006;2024-02-04T11:04:05;100095.64;;;10.68;61.76
76819;BME280;65772;51.096;17.006;2024-02-04T11:06:37;100091.99;;;10.65;61.86
76819;BME280;65772;51.096;17.006;2024-02-04T11:09:09;100078.20;;;10.67;62.17
76819;BME280;65772;51.096;17.006;2024-02-04T11:11:41;100084.23;;;10.68;62.47
76819;BME280;65772;51.096;17.006;2024-02-04T11:14:15;100079.98;;;10.71;62.55
76819;BME280;65772;51.096;17.006;2024-02-04T11:17:07;100077.66;;;10.73;62.71
76819;BME280;65772;51.096;17.006;2024-02-04T11:19:53;100068.02;;;10.76;62.56
76819;BME280;65772;51.096;17.006;2024-02-04T11:22:47;100052.17;;;10.77;62.74
76819;BME280;65772;51.096;17.006;2024-02-04T11:25:43;100046.02;;;10.77;62.91
76819;BME280;65772;51.096;17.006;2024-02-04T11:28:16;100040.08;;;10.78;62.93
76819;BME280;65772;51.096;17.006;2024-02-04T11:30:49;100034.94;;;10.78;63.27
76819;BME280;65772;51.096;17.006;2024-02-04T11:33:22;100039.00;;;10.76;63.33
76819;BME280;65772;51.096;17.006;2024-02-04T11:36:04;100046.45;;;10.74;63.35
76819;BME280;65772;51.096;17.006;2024-02-04T11:38:38;100039.55;;;10.72;63.70
76819;BME280;65772;51.096;17.006;2024-02-04T11:41:09;100049.10;;;10.71;63.71
76819;BME280;65772;51.096;17.006;2024-02-04T11:43:39;100045.50;;;10.70;63.80
76819;BME280;65772;51.096;17.006;2024-02-04T11:46:17;100046.01;;;10.70;63.94
76819;BME280;65772;51.096;17.006;2024-02-04T11:48:54;100038.65;;;10.76;64.20
76819;BME280;65772;51.096;17.006;2024-02-04T11:51:25;100029.20;;;10.81;63.98
76819;BME280;65772;51.096;17.006;2024-02-04T11:53:57;100029.47;;;10.85;63.83
76819;BME280;65772;51.096;17.006;2024-02-04T11:56:28;100022.23;;;10.89;63.94
76819;BME280;65772;51.096;17.006;2024-02-04T11:58:59;100011.16;;;10.91;64.05
76819;BME280;65772;51.096;17.006;2024-02-04T12:01:32;100006.73;;;10.92;63.87
76819;BME280;65772;51.096;17.006;2024-02-04T12:04:12;100001.27;;;10.92;63.73
76819;BME280;65772;51.096;17.006;2024-02-04T12:06:44;99996.83;;;10.91;63.53
76819;BME280;65772;51.096;17.006;2024-02-04T12:09:17;99996.30;;;10.90;63.75
76819;BME280;65772;51.096;17.006;2024-02-04T12:11:48;99984.86;;;10.91;63.52
76819;BME280;65772;51.096;17.006;2024-02-04T12:14:19;99975.52;;;10.94;63.19
76819;BME280;65772;51.096;17.006;2024-02-04T12:16:50;99979.52;;;10.96;63.23
76819;BME280;65772;51.096;17.006;2024-02-04T12:19:21;99964.54;;;10.98;63.11
76819;BME280;65772;51.096;17.006;2024-02-04T12:21:52;99955.52;;;11.00;63.10
76819;BME280;65772;51.096;17.006;2024-02-04T12:24:24;99963.05;;;11.01;62.82
76819;BME280;65772;51.096;17.006;2024-02-04T12:26:55;99954.85;;;11.00;62.78
76819;BME280;65772;51.096;17.006;2024-02-04T12:29:26;99954.19;;;11.01;62.83
76819;BME280;65772;51.096;17.006;2024-02-04T12:32:00;99946.84;;;11.01;62.91
76819;BME280;65772;51.096;17.006;2024-02-04T12:34:32;99940.58;;;11.05;63.20
76819;BME280;65772;51.096;17.006;2024-02-04T12:37:05;99939.13;;;11.09;62.84
76819;BME280;65772;51.096;17.006;2024-02-04T12:39:36;99921.42;;;11.12;62.92
76819;BME280;65772;51.096;17.006;2024-02-04T12:42:07;99911.55;;;11.15;63.06
76819;BME280;65772;51.096;17.006;2024-02-04T12:44:38;99910.59;;;11.17;63.11
76819;BME280;65772;51.096;17.006;2024-02-04T12:47:08;99910.29;;;11.19;63.11
76819;BME280;65772;51.096;17.006;2024-02-04T12:49:39;99901.78;;;11.20;63.04
76819;BME280;65772;51.096;17.006;2024-02-04T12:52:10;99896.36;;;11.23;63.10
76819;BME280;65772;51.096;17.006;2024-02-04T12:54:44;99892.23;;;11.22;62.97
76819;BME280;65772;51.096;17.006;2024-02-04T12:57:24;99888.45;;;11.20;63.06
76819;BME280;65772;51.096;17.006;2024-02-04T13:00:05;99878.83;;;11.18;63.04
76819;BME280;65772;51.096;17.006;2024-02-04T13:02:38;99872.83;;;11.16;62.98
76819;BME280;65772;51.096;17.006;2024-02-04T13:05:09;99877.73;;;11.14;63.02
76819;BME280;65772;51.096;17.006;2024-02-04T13:07:40;99878.39;;;11.13;62.96
76819;BME280;65772;51.096;17.006;2024-02-04T13:10:14;99878.73;;;11.13;63.08